sensor_id;sensor_type;location;lat;lon;timestamp;P1;durP1;ratioP1;P2;durP2;ratioP2
2480;SDS011;57396;48.742;9.128;2023-02-03T00:01:39;1.57;;;1.20;;
2480;SDS011;57396;48.742;9.128;2023-02-03T00:04:05;1.40;;;1.10;;
2480;SDS011;57396;48.742;9.128;2023-02-03T00:06:30;2.27;;;1.20;;
2480;SDS011;57396;48.742;9.128;2023-02-03T00:08:56;1.60;;;1.10;;
2480;SDS011;57396;48.742;9.128;2023-02-03T00:11:23;1.70;;;1.20;;
2480;SDS011;57396;48.742;9.128;2023-02-03T00:13:49;2.40;;;1.10;;
2480;SDS011;57396;48.742;9.128;2023-02-03T00:16:15;1.33;;;1.03;;
2480;SDS011;57396;48.742;9.128;2023-02-03T00:18:40;1.70;;;0.90;;
2480;SDS011;57396;48.742;9.128;2023-02-03T00:21:06;1.10;;;1.00;;
2480;SDS011;57396;48.742;9.128;2023-02-03T00:23:31;2.50;;;1.33;;
2480;SDS011;57396;48.742;9.128;2023-02-03T00:25:57;2.03;;;0.83;;
2480;SDS011;57396;48.742;9.128;2023-02-03T00:28:31;2.70;;;1.00;;
2480;SDS011;57396;48.742;9.128;2023-02-03T00:30:56;1.83;;;1.20;;
2480;SDS011;57396;48.742;9.128;2023-02-03T00:33:21;1.87;;;0.90;;
2480;SDS011;57396;48.742;9.128;2023-02-03T00:35:47;1.63;;;1.03;;
2480;SDS011;57396;48.742;9.128;2023-02-03T00:38:13;2.37;;;1.10;;
2480;SDS011;57396;48.742;9.128;2023-02-03T00:40:39;1.50;;;0.90;;
2480;SDS011;57396;48.742;9.128;2023-02-03T00:43:04;1.87;;;1.77;;
2480;SDS011;57396;48.742;9.128;2023-02-03T00:45:30;1.10;;;1.00;;
2480;SDS011;57396;48.742;9.128;2023-02-03T00:47:55;1.03;;;0.80;;
2480;SDS011;57396;48.742;9.128;2023-02-03T00:50:21;2.33;;;1.00;;
2480;SDS011;57396;48.742;9.128;2023-02-03T00:52:46;0.90;;;0.80;;
2480;SDS011;57396;48.742;9.128;2023-02-03T00:55:12;1.70;;;1.00;;
2480;SDS011;57396;48.742;9.128;2023-02-03T00:57:37;1.20;;;0.90;;
2480;SDS011;57396;48.742;9.128;2023-02-03T01:00:03;1.50;;;0.80;;
2480;SDS011;57396;48.742;9.128;2023-02-03T01:02:28;1.40;;;0.80;;
2480;SDS011;57396;48.742;9.128;2023-02-03T01:04:54;4.50;;;1.07;;
2480;SDS011;57396;48.742;9.128;2023-02-03T01:07:19;1.40;;;0.90;;
2480;SDS011;57396;48.742;9.128;2023-02-03T01:09:45;1.10;;;0.90;;
2480;SDS011;57396;48.742;9.128;2023-02-03T01:12:10;1.23;;;1.00;;
2480;SDS011;57396;48.742;9.128;2023-02-03T01:14:35;1.00;;;0.80;;
2480;SDS011;57396;48.742;9.128;2023-02-03T01:17:01;1.37;;;1.10;;
2480;SDS011;57396;48.742;9.128;2023-02-03T01:19:26;1.00;;;0.90;;
2480;SDS011;57396;48.742;9.128;2023-02-03T01:21:52;1.83;;;1.27;;
2480;SDS011;57396;48.742;9.128;2023-02-03T01:24:17;1.67;;;1.37;;
2480;SDS011;57396;48.742;9.128;2023-02-03T01:26:43;2.90;;;1.37;;
2480;SDS011;57396;48.742;9.128;2023-02-03T01:29:08;1.50;;;0.90;;
2480;SDS011;57396;48.742;9.128;2023-02-03T01:31:35;1.70;;;1.27;;
2480;SDS011;57396;48.742;9.128;2023-02-03T01:34:12;1.93;;;1.23;;
2480;SDS011;57396;48.742;9.128;2023-02-03T01:36:40;1.20;;;1.10;;
2480;SDS011;57396;48.742;9.128;2023-02-03T01:39:06;2.43;;;1.30;;
2480;SDS011;57396;48.742;9.128;2023-02-03T01:41:33;1.40;;;1.30;;
2480;SDS011;57396;48.742;9.128;2023-02-03T01:44:00;1.53;;;1.20;;
2480;SDS011;57396;48.742;9.128;2023-02-03T01:49:07;2.13;;;1.30;;
2480;SDS011;57396;48.742;9.128;2023-02-03T01:51:36;2.13;;;1.00;;
2480;SDS011;57396;48.742;9.128;2023-02-03T01:54:02;1.43;;;1.20;;
2480;SDS011;57396;48.742;9.128;2023-02-03T01:56:29;2.50;;;1.30;;
2480;SDS011;57396;48.742;9.128;2023-02-03T01:58:57;2.30;;;1.10;;
2480;SDS011;57396;48.742;9.128;2023-02-03T02:01:24;1.97;;;1.50;;
2480;SDS011;57396;48.742;9.128;2023-02-03T02:03:53;2.20;;;1.50;;
2480;SDS011;57396;48.742;9.128;2023-02-03T02:06:21;1.43;;;1.17;;
2480;SDS011;57396;48.742;9.128;2023-02-03T02:08:47;3.17;;;1.10;;
2480;SDS011;57396;48.742;9.128;2023-02-03T02:11:14;2.27;;;1.50;;
2480;SDS011;57396;48.742;9.128;2023-02-03T02:13:40;3.93;;;1.67;;
2480;SDS011;57396;48.742;9.128;2023-02-03T02:32:19;2.73;;;1.70;;
2480;SDS011;57396;48.742;9.128;2023-02-03T02:40:10;2.30;;;1.67;;
2480;SDS011;57396;48.742;9.128;2023-02-03T02:45:16;2.90;;;1.70;;
2480;SDS011;57396;48.742;9.128;2023-02-03T02:47:46;3.00;;;1.57;;
2480;SDS011;57396;48.742;9.128;2023-02-03T02:52:40;1.83;;;1.57;;
2480;SDS011;57396;48.742;9.128;2023-02-03T02:55:09;2.20;;;1.57;;
2480;SDS011;57396;48.742;9.128;2023-02-03T02:57:38;6.53;;;1.87;;
2480;SDS011;57396;48.742;9.128;2023-02-03T03:00:04;3.10;;;1.50;;
2480;SDS011;57396;48.742;9.128;2023-02-03T03:02:31;1.70;;;1.43;;
2480;SDS011;57396;48.742;9.128;2023-02-03T03:04:57;4.70;;;1.50;;
2480;SDS011;57396;48.742;9.128;2023-02-03T03:07:23;3.10;;;1.10;;
2480;SDS011;57396;48.742;9.128;2023-02-03T03:09:58;3.33;;;1.33;;
2480;SDS011;57396;48.742;9.128;2023-02-03T03:12:30;4.00;;;1.70;;
2480;SDS011;57396;48.742;9.128;2023-02-03T03:15:00;2.30;;;1.67;;
2480;SDS011;57396;48.742;9.128;2023-02-03T03:17:32;2.00;;;1.13;;
2480;SDS011;57396;48.742;9.128;2023-02-03T03:20:00;1.73;;;1.10;;
2480;SDS011;57396;48.742;9.128;2023-02-03T03:22:29;1.57;;;1.00;;
2480;SDS011;57396;48.742;9.128;2023-02-03T03:24:59;2.60;;;1.60;;
2480;SDS011;57396;48.742;9.128;2023-02-03T03:27:32;1.80;;;1.20;;
2480;SDS011;57396;48.742;9.128;2023-02-03T03:30:05;1.43;;;1.33;;
2480;SDS011;57396;48.742;9.128;2023-02-03T03:32:34;1.23;;;1.00;;
2480;SDS011;57396;48.742;9.128;2023-02-03T03:35:00;2.13;;;1.17;;
2480;SDS011;57396;48.742;9.128;2023-02-03T03:40:17;1.33;;;1.10;;
2480;SDS011;57396;48.742;9.128;2023-02-03T03:47:48;1.00;;;0.83;;
2480;SDS011;57396;48.742;9.128;2023-02-03T03:50:24;0.90;;;0.80;;
2480;SDS011;57396;48.742;9.128;2023-02-03T03:52:52;1.20;;;0.83;;
2480;SDS011;57396;48.742;9.128;2023-02-03T03:55:18;2.17;;;0.90;;
2480;SDS011;57396;48.742;9.128;2023-02-03T03:57:51;1.20;;;0.80;;
2480;SDS011;57396;48.742;9.128;2023-02-03T04:00:19;1.30;;;0.80;;
2480;SDS011;57396;48.742;9.128;2023-02-03T04:02:45;2.70;;;0.80;;
2480;SDS011;57396;48.742;9.128;2023-02-03T04:05:16;1.20;;;0.70;;
2480;SDS011;57396;48.742;9.128;2023-02-03T04:07:43;1.00;;;0.60;;
2480;SDS011;57396;48.742;9.128;2023-02-03T04:10:13;0.93;;;0.70;;
2480;SDS011;57396;48.742;9.128;2023-02-03T04:12:43;1.03;;;0.70;;
2480;SDS011;57396;48.742;9.128;2023-02-03T04:15:08;1.10;;;0.70;;
2480;SDS011;57396;48.742;9.128;2023-02-03T04:17:33;1.10;;;0.70;;
2480;SDS011;57396;48.742;9.128;2023-02-03T04:20:01;0.80;;;0.70;;
2480;SDS011;57396;48.742;9.128;2023-02-03T04:22:27;1.40;;;0.80;;
2480;SDS011;57396;48.742;9.128;2023-02-03T04:24:53;1.20;;;0.70;;
2480;SDS011;57396;48.742;9.128;2023-02-03T04:27:18;1.83;;;0.70;;
2480;SDS011;57396;48.742;9.128;2023-02-03T04:29:44;2.40;;;0.97;;
2480;SDS011;57396;48.742;9.128;2023-02-03T04:32:11;1.17;;;0.93;;
2480;SDS011;57396;48.742;9.128;2023-02-03T04:34:37;1.07;;;0.90;;
2480;SDS011;57396;48.742;9.128;2023-02-03T04:37:02;1.30;;;0.97;;
2480;SDS011;57396;48.742;9.128;2023-02-03T04:39:27;1.33;;;0.80;;
2480;SDS011;57396;48.742;9.128;2023-02-03T04:41:53;1.63;;;0.80;;
2480;SDS011;57396;48.742;9.128;2023-02-03T04:44:18;0.90;;;0.77;;
2480;SDS011;57396;48.742;9.128;2023-02-03T04:46:44;1.43;;;0.80;;
2480;SDS011;57396;48.742;9.128;2023-02-03T04:49:09;1.93;;;0.90;;
2480;SDS011;57396;48.742;9.128;2023-02-03T04:51:35;1.17;;;0.87;;
2480;SDS011;57396;48.742;9.128;2023-02-03T04:54:01;0.83;;;0.70;;
2480;SDS011;57396;48.742;9.128;2023-02-03T04:56:26;0.90;;;0.80;;
2480;SDS011;57396;48.742;9.128;2023-02-03T04:58:51;1.13;;;0.90;;
2480;SDS011;57396;48.742;9.128;2023-02-03T05:01:17;1.20;;;0.70;;
2480;SDS011;57396;48.742;9.128;2023-02-03T05:03:42;1.50;;;0.87;;
2480;SDS011;57396;48.742;9.128;2023-02-03T05:06:08;1.30;;;0.80;;
2480;SDS011;57396;48.742;9.128;2023-02-03T05:08:34;1.03;;;0.70;;
2480;SDS011;57396;48.742;9.128;2023-02-03T05:10:59;2.83;;;0.97;;
2480;SDS011;57396;48.742;9.128;2023-02-03T05:13:25;1.07;;;0.90;;
2480;SDS011;57396;48.742;9.128;2023-02-03T05:15:50;1.33;;;1.10;;
2480;SDS011;57396;48.742;9.128;2023-02-03T05:18:16;1.10;;;1.00;;
2480;SDS011;57396;48.742;9.128;2023-02-03T05:20:41;1.77;;;0.80;;
2480;SDS011;57396;48.742;9.128;2023-02-03T05:23:07;2.10;;;1.10;;
2480;SDS011;57396;48.742;9.128;2023-02-03T05:25:32;1.60;;;1.17;;
2480;SDS011;57396;48.742;9.128;2023-02-03T05:27:58;1.60;;;1.00;;
2480;SDS011;57396;48.742;9.128;2023-02-03T05:30:23;1.53;;;1.00;;
2480;SDS011;57396;48.742;9.128;2023-02-03T05:32:48;1.53;;;1.27;;
2480;SDS011;57396;48.742;9.128;2023-02-03T05:35:14;2.77;;;1.30;;
2480;SDS011;57396;48.742;9.128;2023-02-03T05:37:40;1.20;;;1.10;;
2480;SDS011;57396;48.742;9.128;2023-02-03T05:40:08;3.93;;;1.30;;
2480;SDS011;57396;48.742;9.128;2023-02-03T05:42:52;4.10;;;1.60;;
2480;SDS011;57396;48.742;9.128;2023-02-03T05:45:18;1.70;;;1.33;;
2480;SDS011;57396;48.742;9.128;2023-02-03T05:47:43;1.20;;;1.10;;
2480;SDS011;57396;48.742;9.128;2023-02-03T05:50:09;3.53;;;1.70;;
2480;SDS011;57396;48.742;9.128;2023-02-03T05:52:34;2.40;;;1.60;;
2480;SDS011;57396;48.742;9.128;2023-02-03T05:55:00;2.63;;;1.50;;
2480;SDS011;57396;48.742;9.128;2023-02-03T05:57:25;1.80;;;1.23;;
2480;SDS011;57396;48.742;9.128;2023-02-03T05:59:50;1.77;;;1.20;;
2480;SDS011;57396;48.742;9.128;2023-02-03T06:02:16;3.90;;;1.73;;
2480;SDS011;57396;48.742;9.128;2023-02-03T06:04:41;1.63;;;1.20;;
2480;SDS011;57396;48.742;9.128;2023-02-03T06:07:07;1.77;;;1.43;;
2480;SDS011;57396;48.742;9.128;2023-02-03T06:09:32;1.70;;;1.20;;
2480;SDS011;57396;48.742;9.128;2023-02-03T06:11:57;1.63;;;1.37;;
2480;SDS011;57396;48.742;9.128;2023-02-03T06:14:23;1.20;;;1.07;;
2480;SDS011;57396;48.742;9.128;2023-02-03T06:16:48;1.20;;;1.10;;
2480;SDS011;57396;48.742;9.128;2023-02-03T06:19:14;2.30;;;1.37;;
2480;SDS011;57396;48.742;9.128;2023-02-03T06:21:39;6.60;;;1.57;;
2480;SDS011;57396;48.742;9.128;2023-02-03T06:24:05;3.60;;;1.60;;
2480;SDS011;57396;48.742;9.128;2023-02-03T06:26:30;1.30;;;1.20;;
2480;SDS011;57396;48.742;9.128;2023-02-03T06:28:56;1.60;;;1.40;;
2480;SDS011;57396;48.742;9.128;2023-02-03T06:31:21;2.87;;;1.27;;
2480;SDS011;57396;48.742;9.128;2023-02-03T06:33:47;2.13;;;1.30;;
2480;SDS011;57396;48.742;9.128;2023-02-03T06:36:12;1.30;;;1.20;;
2480;SDS011;57396;48.742;9.128;2023-02-03T06:38:38;3.47;;;1.30;;
2480;SDS011;57396;48.742;9.128;2023-02-03T06:41:03;3.53;;;1.43;;
2480;SDS011;57396;48.742;9.128;2023-02-03T06:43:28;4.03;;;1.33;;
2480;SDS011;57396;48.742;9.128;2023-02-03T06:45:54;4.67;;;1.50;;
2480;SDS011;57396;48.742;9.128;2023-02-03T06:48:19;5.90;;;2.17;;
2480;SDS011;57396;48.742;9.128;2023-02-03T06:50:45;2.47;;;1.80;;
2480;SDS011;57396;48.742;9.128;2023-02-03T06:53:10;5.47;;;1.73;;
2480;SDS011;57396;48.742;9.128;2023-02-03T06:55:36;2.83;;;1.40;;
2480;SDS011;57396;48.742;9.128;2023-02-03T06:58:01;5.70;;;2.23;;
2480;SDS011;57396;48.742;9.128;2023-02-03T07:00:27;5.37;;;1.97;;
2480;SDS011;57396;48.742;9.128;2023-02-03T07:02:53;2.67;;;1.50;;
2480;SDS011;57396;48.742;9.128;2023-02-03T07:05:20;4.13;;;1.73;;
2480;SDS011;57396;48.742;9.128;2023-02-03T07:07:46;3.53;;;1.80;;
2480;SDS011;57396;48.742;9.128;2023-02-03T07:10:11;1.83;;;1.40;;
2480;SDS011;57396;48.742;9.128;2023-02-03T07:12:36;6.37;;;1.87;;
2480;SDS011;57396;48.742;9.128;2023-02-03T07:15:03;10.50;;;2.13;;
2480;SDS011;57396;48.742;9.128;2023-02-03T07:17:28;3.73;;;1.93;;
2480;SDS011;57396;48.742;9.128;2023-02-03T07:19:54;2.13;;;1.50;;
2480;SDS011;57396;48.742;9.128;2023-02-03T07:22:19;2.20;;;1.57;;
2480;SDS011;57396;48.742;9.128;2023-02-03T07:24:45;1.80;;;1.27;;
2480;SDS011;57396;48.742;9.128;2023-02-03T07:27:10;2.70;;;1.63;;
2480;SDS011;57396;48.742;9.128;2023-02-03T07:29:36;2.40;;;1.63;;
2480;SDS011;57396;48.742;9.128;2023-02-03T07:32:01;1.90;;;1.60;;
2480;SDS011;57396;48.742;9.128;2023-02-03T07:34:27;2.90;;;1.67;;
2480;SDS011;57396;48.742;9.128;2023-02-03T07:36:52;3.00;;;1.90;;
2480;SDS011;57396;48.742;9.128;2023-02-03T07:39:18;2.03;;;1.70;;
2480;SDS011;57396;48.742;9.128;2023-02-03T07:41:43;2.00;;;1.90;;
2480;SDS011;57396;48.742;9.128;2023-02-03T07:44:09;1.97;;;1.73;;
2480;SDS011;57396;48.742;9.128;2023-02-03T07:46:34;2.63;;;1.70;;
2480;SDS011;57396;48.742;9.128;2023-02-03T07:49:04;3.03;;;1.90;;
2480;SDS011;57396;48.742;9.128;2023-02-03T07:51:30;2.40;;;1.77;;
2480;SDS011;57396;48.742;9.128;2023-02-03T07:53:55;3.60;;;1.90;;
2480;SDS011;57396;48.742;9.128;2023-02-03T07:56:21;2.70;;;1.80;;
2480;SDS011;57396;48.742;9.128;2023-02-03T07:58:46;2.83;;;1.60;;
2480;SDS011;57396;48.742;9.128;2023-02-03T08:01:13;3.50;;;1.80;;
2480;SDS011;57396;48.742;9.128;2023-02-03T08:03:40;2.73;;;1.80;;
2480;SDS011;57396;48.742;9.128;2023-02-03T08:06:05;2.00;;;1.80;;
2480;SDS011;57396;48.742;9.128;2023-02-03T08:08:32;3.07;;;2.23;;
2480;SDS011;57396;48.742;9.128;2023-02-03T08:10:57;2.17;;;1.80;;
2480;SDS011;57396;48.742;9.128;2023-02-03T08:13:22;3.30;;;2.20;;
2480;SDS011;57396;48.742;9.128;2023-02-03T08:15:48;4.13;;;2.10;;
2480;SDS011;57396;48.742;9.128;2023-02-03T08:18:13;4.00;;;2.20;;
2480;SDS011;57396;48.742;9.128;2023-02-03T08:20:39;5.67;;;2.13;;
2480;SDS011;57396;48.742;9.128;2023-02-03T08:23:04;2.40;;;1.83;;
2480;SDS011;57396;48.742;9.128;2023-02-03T08:25:30;4.37;;;2.17;;
2480;SDS011;57396;48.742;9.128;2023-02-03T08:27:56;2.77;;;2.30;;
2480;SDS011;57396;48.742;9.128;2023-02-03T08:30:21;3.20;;;1.60;;
2480;SDS011;57396;48.742;9.128;2023-02-03T08:32:47;4.67;;;2.20;;
2480;SDS011;57396;48.742;9.128;2023-02-03T08:35:13;2.43;;;1.80;;
2480;SDS011;57396;48.742;9.128;2023-02-03T08:37:38;3.00;;;2.07;;
2480;SDS011;57396;48.742;9.128;2023-02-03T08:40:04;4.20;;;1.67;;
2480;SDS011;57396;48.742;9.128;2023-02-03T08:42:30;2.07;;;1.83;;
2480;SDS011;57396;48.742;9.128;2023-02-03T08:44:56;6.17;;;2.33;;
2480;SDS011;57396;48.742;9.128;2023-02-03T08:47:21;2.60;;;2.40;;
2480;SDS011;57396;48.742;9.128;2023-02-03T08:49:47;2.50;;;1.80;;
2480;SDS011;57396;48.742;9.128;2023-02-03T08:52:12;4.17;;;2.00;;
2480;SDS011;57396;48.742;9.128;2023-02-03T08:54:38;2.50;;;2.30;;
2480;SDS011;57396;48.742;9.128;2023-02-03T08:57:04;2.67;;;2.00;;
2480;SDS011;57396;48.742;9.128;2023-02-03T08:59:30;4.10;;;2.27;;
2480;SDS011;57396;48.742;9.128;2023-02-03T09:01:56;4.80;;;2.10;;
2480;SDS011;57396;48.742;9.128;2023-02-03T09:04:24;3.63;;;2.23;;
2480;SDS011;57396;48.742;9.128;2023-02-03T09:06:50;4.53;;;2.30;;
2480;SDS011;57396;48.742;9.128;2023-02-03T09:09:18;4.53;;;2.17;;
2480;SDS011;57396;48.742;9.128;2023-02-03T09:11:44;2.80;;;1.77;;
2480;SDS011;57396;48.742;9.128;2023-02-03T09:14:09;4.63;;;1.87;;
2480;SDS011;57396;48.742;9.128;2023-02-03T09:16:35;4.27;;;2.00;;
2480;SDS011;57396;48.742;9.128;2023-02-03T09:19:00;2.70;;;1.90;;
2480;SDS011;57396;48.742;9.128;2023-02-03T09:21:26;2.80;;;1.90;;
2480;SDS011;57396;48.742;9.128;2023-02-03T09:23:52;4.27;;;2.00;;
2480;SDS011;57396;48.742;9.128;2023-02-03T09:26:17;4.97;;;2.33;;
2480;SDS011;57396;48.742;9.128;2023-02-03T09:28:43;5.20;;;1.87;;
2480;SDS011;57396;48.742;9.128;2023-02-03T09:31:09;2.83;;;1.60;;
2480;SDS011;57396;48.742;9.128;2023-02-03T09:33:36;3.10;;;1.57;;
2480;SDS011;57396;48.742;9.128;2023-02-03T09:36:02;8.40;;;1.83;;
2480;SDS011;57396;48.742;9.128;2023-02-03T09:38:28;3.77;;;2.03;;
2480;SDS011;57396;48.742;9.128;2023-02-03T09:40:54;4.77;;;2.50;;
2480;SDS011;57396;48.742;9.128;2023-02-03T09:43:27;1.80;;;1.70;;
2480;SDS011;57396;48.742;9.128;2023-02-03T09:46:29;3.40;;;1.83;;
2480;SDS011;57396;48.742;9.128;2023-02-03T09:49:08;5.23;;;1.70;;
2480;SDS011;57396;48.742;9.128;2023-02-03T09:57:20;2.20;;;1.73;;
2480;SDS011;57396;48.742;9.128;2023-02-03T09:59:56;2.83;;;2.30;;
2480;SDS011;57396;48.742;9.128;2023-02-03T10:02:31;3.53;;;1.90;;
2480;SDS011;57396;48.742;9.128;2023-02-03T10:08:06;1.70;;;1.60;;
2480;SDS011;57396;48.742;9.128;2023-02-03T10:10:38;2.47;;;1.97;;
2480;SDS011;57396;48.742;9.128;2023-02-03T10:13:14;1.93;;;1.57;;
2480;SDS011;57396;48.742;9.128;2023-02-03T10:15:51;2.50;;;1.83;;
2480;SDS011;57396;48.742;9.128;2023-02-03T10:18:23;4.90;;;2.10;;
2480;SDS011;57396;48.742;9.128;2023-02-03T10:20:52;2.37;;;1.77;;
2480;SDS011;57396;48.742;9.128;2023-02-03T10:23:29;3.10;;;1.70;;
2480;SDS011;57396;48.742;9.128;2023-02-03T10:25:58;1.90;;;1.50;;
2480;SDS011;57396;48.742;9.128;2023-02-03T10:28:27;1.93;;;1.30;;
2480;SDS011;57396;48.742;9.128;2023-02-03T10:30:59;5.53;;;2.07;;
2480;SDS011;57396;48.742;9.128;2023-02-03T10:33:26;3.97;;;1.43;;
2480;SDS011;57396;48.742;9.128;2023-02-03T10:35:53;4.50;;;2.10;;
2480;SDS011;57396;48.742;9.128;2023-02-03T10:38:28;2.37;;;1.60;;
2480;SDS011;57396;48.742;9.128;2023-02-03T10:40:56;3.20;;;1.80;;
2480;SDS011;57396;48.742;9.128;2023-02-03T10:43:22;5.83;;;3.10;;
2480;SDS011;57396;48.742;9.128;2023-02-03T10:46:06;8.43;;;5.63;;
2480;SDS011;57396;48.742;9.128;2023-02-03T10:48:31;5.10;;;3.30;;
2480;SDS011;57396;48.742;9.128;2023-02-03T10:50:57;3.37;;;1.93;;
2480;SDS011;57396;48.742;9.128;2023-02-03T10:53:24;4.80;;;2.90;;
2480;SDS011;57396;48.742;9.128;2023-02-03T10:56:06;9.13;;;5.10;;
2480;SDS011;57396;48.742;9.128;2023-02-03T10:58:33;6.73;;;4.03;;
2480;SDS011;57396;48.742;9.128;2023-02-03T11:03:31;3.43;;;1.80;;
2480;SDS011;57396;48.742;9.128;2023-02-03T11:06:02;2.80;;;1.30;;
2480;SDS011;57396;48.742;9.128;2023-02-03T11:08:31;7.20;;;2.40;;
2480;SDS011;57396;48.742;9.128;2023-02-03T11:11:01;10.50;;;7.57;;
2480;SDS011;57396;48.742;9.128;2023-02-03T11:13:29;3.27;;;1.90;;
2480;SDS011;57396;48.742;9.128;2023-02-03T11:15:55;2.60;;;1.43;;
2480;SDS011;57396;48.742;9.128;2023-02-03T11:21:05;3.07;;;1.70;;
2480;SDS011;57396;48.742;9.128;2023-02-03T11:23:31;4.50;;;2.43;;
2480;SDS011;57396;48.742;9.128;2023-02-03T11:25:57;2.07;;;1.60;;
2480;SDS011;57396;48.742;9.128;2023-02-03T11:28:23;1.00;;;0.70;;
2480;SDS011;57396;48.742;9.128;2023-02-03T11:30:55;1.10;;;0.90;;
2480;SDS011;57396;48.742;9.128;2023-02-03T11:33:23;1.20;;;0.97;;
2480;SDS011;57396;48.742;9.128;2023-02-03T11:35:54;1.50;;;0.77;;
2480;SDS011;57396;48.742;9.128;2023-02-03T11:38:32;1.60;;;1.10;;
2480;SDS011;57396;48.742;9.128;2023-02-03T11:41:02;5.13;;;1.57;;
2480;SDS011;57396;48.742;9.128;2023-02-03T11:43:28;4.00;;;1.40;;
2480;SDS011;57396;48.742;9.128;2023-02-03T11:45:58;1.63;;;1.13;;
2480;SDS011;57396;48.742;9.128;2023-02-03T11:48:34;3.43;;;1.00;;
2480;SDS011;57396;48.742;9.128;2023-02-03T11:59:59;1.37;;;1.03;;
2480;SDS011;57396;48.742;9.128;2023-02-03T12:19:37;1.53;;;1.00;;
2480;SDS011;57396;48.742;9.128;2023-02-03T12:30:04;0.90;;;0.70;;
2480;SDS011;57396;48.742;9.128;2023-02-03T12:32:35;1.33;;;1.10;;
2480;SDS011;57396;48.742;9.128;2023-02-03T12:37:49;0.90;;;0.63;;
2480;SDS011;57396;48.742;9.128;2023-02-03T12:40:35;2.37;;;0.90;;
2480;SDS011;57396;48.742;9.128;2023-02-03T12:43:19;1.47;;;0.87;;
2480;SDS011;57396;48.742;9.128;2023-02-03T12:51:52;1.00;;;0.70;;
2480;SDS011;57396;48.742;9.128;2023-02-03T12:57:48;0.90;;;0.70;;
2480;SDS011;57396;48.742;9.128;2023-02-03T13:00:03;2.27;;;0.90;;
2480;SDS011;57396;48.742;9.128;2023-02-03T13:02:34;0.93;;;0.83;;
2480;SDS011;57396;48.742;9.128;2023-02-03T13:07:54;1.10;;;0.80;;
2480;SDS011;57396;48.742;9.128;2023-02-03T13:10:52;1.00;;;0.70;;
2480;SDS011;57396;48.742;9.128;2023-02-03T13:13:22;3.47;;;0.80;;
2480;SDS011;57396;48.742;9.128;2023-02-03T13:15:52;0.90;;;0.80;;
2480;SDS011;57396;48.742;9.128;2023-02-03T13:18:28;1.20;;;1.00;;
2480;SDS011;57396;48.742;9.128;2023-02-03T13:20:56;2.30;;;0.80;;
2480;SDS011;57396;48.742;9.128;2023-02-03T13:23:22;1.40;;;0.80;;
2480;SDS011;57396;48.742;9.128;2023-02-03T13:25:51;0.90;;;0.70;;
2480;SDS011;57396;48.742;9.128;2023-02-03T13:31:25;0.90;;;0.77;;
2480;SDS011;57396;48.742;9.128;2023-02-03T13:42:10;2.37;;;0.80;;
2480;SDS011;57396;48.742;9.128;2023-02-03T13:44:43;1.77;;;0.90;;
2480;SDS011;57396;48.742;9.128;2023-02-03T13:47:14;1.13;;;0.90;;
2480;SDS011;57396;48.742;9.128;2023-02-03T13:49:41;1.03;;;0.87;;
2480;SDS011;57396;48.742;9.128;2023-02-03T13:54:57;1.47;;;0.80;;
2480;SDS011;57396;48.742;9.128;2023-02-03T13:57:36;1.17;;;0.77;;
2480;SDS011;57396;48.742;9.128;2023-02-03T14:00:10;0.90;;;0.70;;
2480;SDS011;57396;48.742;9.128;2023-02-03T14:03:13;1.37;;;0.80;;
2480;SDS011;57396;48.742;9.128;2023-02-03T14:05:44;1.10;;;0.80;;
2480;SDS011;57396;48.742;9.128;2023-02-03T14:13:52;1.67;;;0.87;;
2480;SDS011;57396;48.742;9.128;2023-02-03T14:16:21;1.10;;;0.60;;
2480;SDS011;57396;48.742;9.128;2023-02-03T14:18:48;2.30;;;0.80;;
2480;SDS011;57396;48.742;9.128;2023-02-03T14:21:15;0.97;;;0.87;;
2480;SDS011;57396;48.742;9.128;2023-02-03T14:23:44;1.80;;;0.70;;
2480;SDS011;57396;48.742;9.128;2023-02-03T14:26:53;0.87;;;0.67;;
2480;SDS011;57396;48.742;9.128;2023-02-03T14:29:02;1.50;;;0.90;;
2480;SDS011;57396;48.742;9.128;2023-02-03T14:31:28;1.40;;;0.60;;
2480;SDS011;57396;48.742;9.128;2023-02-03T14:34:01;1.20;;;0.90;;
2480;SDS011;57396;48.742;9.128;2023-02-03T14:36:42;2.10;;;1.07;;
2480;SDS011;57396;48.742;9.128;2023-02-03T14:41:47;1.27;;;0.70;;
2480;SDS011;57396;48.742;9.128;2023-02-03T14:47:03;1.80;;;1.33;;
2480;SDS011;57396;48.742;9.128;2023-02-03T14:50:12;1.00;;;0.80;;
2480;SDS011;57396;48.742;9.128;2023-02-03T14:55:56;1.00;;;0.77;;
2480;SDS011;57396;48.742;9.128;2023-02-03T14:58:43;2.10;;;0.80;;
2480;SDS011;57396;48.742;9.128;2023-02-03T15:06:37;1.70;;;1.00;;
2480;SDS011;57396;48.742;9.128;2023-02-03T15:11:48;1.63;;;1.00;;
2480;SDS011;57396;48.742;9.128;2023-02-03T15:14:18;1.20;;;0.77;;
2480;SDS011;57396;48.742;9.128;2023-02-03T15:16:47;1.27;;;1.00;;
2480;SDS011;57396;48.742;9.128;2023-02-03T15:19:16;2.37;;;1.10;;
2480;SDS011;57396;48.742;9.128;2023-02-03T15:21:43;1.47;;;1.30;;
2480;SDS011;57396;48.742;9.128;2023-02-03T15:24:16;1.20;;;1.10;;
2480;SDS011;57396;48.742;9.128;2023-02-03T15:26:50;1.30;;;1.20;;
2480;SDS011;57396;48.742;9.128;2023-02-03T15:31:47;2.23;;;1.03;;
2480;SDS011;57396;48.742;9.128;2023-02-03T15:34:20;1.27;;;0.90;;
2480;SDS011;57396;48.742;9.128;2023-02-03T15:36:56;1.10;;;1.00;;
2480;SDS011;57396;48.742;9.128;2023-02-03T15:39:32;1.03;;;0.90;;
2480;SDS011;57396;48.742;9.128;2023-02-03T15:42:01;1.27;;;0.87;;
2480;SDS011;57396;48.742;9.128;2023-02-03T15:44:33;1.77;;;1.10;;
2480;SDS011;57396;48.742;9.128;2023-02-03T15:47:00;1.10;;;1.00;;
2480;SDS011;57396;48.742;9.128;2023-02-03T15:49:32;1.03;;;0.93;;
2480;SDS011;57396;48.742;9.128;2023-02-03T15:54:42;3.87;;;1.20;;
2480;SDS011;57396;48.742;9.128;2023-02-03T15:59:57;1.60;;;1.03;;
2480;SDS011;57396;48.742;9.128;2023-02-03T16:02:26;1.00;;;0.80;;
2480;SDS011;57396;48.742;9.128;2023-02-03T16:04:54;1.60;;;1.10;;
2480;SDS011;57396;48.742;9.128;2023-02-03T16:07:21;1.10;;;1.00;;
2480;SDS011;57396;48.742;9.128;2023-02-03T16:09:52;3.00;;;1.00;;
2480;SDS011;57396;48.742;9.128;2023-02-03T16:12:23;1.43;;;0.97;;
2480;SDS011;57396;48.742;9.128;2023-02-03T16:14:50;3.47;;;1.10;;
2480;SDS011;57396;48.742;9.128;2023-02-03T16:22:36;5.33;;;1.20;;
2480;SDS011;57396;48.742;9.128;2023-02-03T16:25:19;1.97;;;1.17;;
2480;SDS011;57396;48.742;9.128;2023-02-03T16:27:56;1.67;;;1.10;;
2480;SDS011;57396;48.742;9.128;2023-02-03T16:30:51;2.60;;;1.40;;
2480;SDS011;57396;48.742;9.128;2023-02-03T16:33:37;1.23;;;1.13;;
2480;SDS011;57396;48.742;9.128;2023-02-03T16:36:20;1.10;;;1.00;;
2480;SDS011;57396;48.742;9.128;2023-02-03T16:39:07;1.47;;;0.90;;
2480;SDS011;57396;48.742;9.128;2023-02-03T16:41:53;2.03;;;1.03;;
2480;SDS011;57396;48.742;9.128;2023-02-03T16:44:38;1.27;;;0.90;;
2480;SDS011;57396;48.742;9.128;2023-02-03T16:47:26;1.10;;;0.90;;
2480;SDS011;57396;48.742;9.128;2023-02-03T16:50:12;1.20;;;1.10;;
2480;SDS011;57396;48.742;9.128;2023-02-03T16:53:10;1.00;;;0.90;;
2480;SDS011;57396;48.742;9.128;2023-02-03T16:55:37;1.30;;;1.10;;
2480;SDS011;57396;48.742;9.128;2023-02-03T16:58:03;1.07;;;0.97;;
2480;SDS011;57396;48.742;9.128;2023-02-03T17:00:28;1.10;;;1.00;;
2480;SDS011;57396;48.742;9.128;2023-02-03T17:02:54;1.20;;;1.00;;
2480;SDS011;57396;48.742;9.128;2023-02-03T17:05:19;2.07;;;0.97;;
2480;SDS011;57396;48.742;9.128;2023-02-03T17:07:45;1.50;;;0.90;;
2480;SDS011;57396;48.742;9.128;2023-02-03T17:10:11;2.20;;;1.10;;
2480;SDS011;57396;48.742;9.128;2023-02-03T17:12:36;2.40;;;1.00;;
2480;SDS011;57396;48.742;9.128;2023-02-03T17:15:03;1.30;;;1.20;;
2480;SDS011;57396;48.742;9.128;2023-02-03T17:17:29;2.13;;;1.50;;
2480;SDS011;57396;48.742;9.128;2023-02-03T17:19:54;1.20;;;0.80;;
2480;SDS011;57396;48.742;9.128;2023-02-03T17:22:26;1.10;;;0.80;;
2480;SDS011;57396;48.742;9.128;2023-02-03T17:24:52;3.47;;;1.00;;
2480;SDS011;57396;48.742;9.128;2023-02-03T17:27:18;1.43;;;1.10;;
2480;SDS011;57396;48.742;9.128;2023-02-03T17:29:43;1.20;;;1.10;;
2480;SDS011;57396;48.742;9.128;2023-02-03T17:32:09;2.43;;;1.10;;
2480;SDS011;57396;48.742;9.128;2023-02-03T17:34:39;1.00;;;0.90;;
2480;SDS011;57396;48.742;9.128;2023-02-03T17:37:05;1.10;;;1.00;;
2480;SDS011;57396;48.742;9.128;2023-02-03T17:39:30;1.00;;;0.80;;